Time;durP1;ratioP1;P1;durP2;ratioP2;P2;SDS_P1;SDS_P2;PMS_P1;PMS_P2;Temp;Humidity;BMP_temperature;BMP_pressure;BME280_temperature;BME280_humidity;BME280_pressure;Samples;Min_cycle;Max_cycle;Signal;HPM_P1;HPM_P2
2024/01/18 00:01:26;;;;;;;22.40;12.17;;;;;;;;;;5086276;28;20298;-90
2024/01/18 00:03:51;;;;;;;25.53;11.77;;;;;;;;;;5076078;28;20016;-91
2024/01/18 00:06:16;;;;;;;23.20;10.90;;;;;;;;;;5093013;28;20024;-92
2024/01/18 00:08:42;;;;;;;21.47;11.87;;;;;;;;;;5096973;28;20459;-92
2024/01/18 00:11:09;;;;;;;24.55;11.60;;;;;;;;;;5076559;28;20051;-90
2024/01/18 00:13:34;;;;;;;22.57;11.43;;;;;;;;;;5099149;28;20028;-90
2024/01/18 00:15:59;;;;;;;24.57;11.60;;;;;;;;;;5092359;28;20028;-90
2024/01/18 00:18:24;;;;;;;22.67;12.20;;;;;;;;;;5093322;28;20025;-91
2024/01/18 00:20:49;;;;;;;20.70;11.47;;;;;;;;;;5089664;28;20020;-90
2024/01/18 00:23:14;;;;;;;27.97;11.73;;;;;;;;;;5093750;28;20637;-90
2024/01/18 00:25:40;;;;;;;23.27;12.03;;;;;;;;;;5106749;28;20117;-91
2024/01/18 00:28:05;;;;;;;21.97;11.97;;;;;;;;;;5094490;28;20066;-91
2024/01/18 00:30:30;;;;;;;23.47;11.27;;;;;;;;;;5089041;28;20047;-92
2024/01/18 00:32:55;;;;;;;23.53;12.27;;;;;;;;;;5087140;28;20507;-91
2024/01/18 00:35:21;;;;;;;22.63;11.70;;;;;;;;;;5093778;28;20024;-90
2024/01/18 00:37:46;;;;;;;28.53;12.83;;;;;;;;;;5092790;28;20107;-90
2024/01/18 00:40:13;;;;;;;23.33;11.63;;;;;;;;;;5091768;28;20519;-89
2024/01/18 00:42:38;;;;;;;24.10;12.80;;;;;;;;;;5092115;28;20023;-91
2024/01/18 00:45:03;;;;;;;23.30;11.90;;;;;;;;;;5090254;28;20274;-91
2024/01/18 00:47:28;;;;;;;26.83;12.27;;;;;;;;;;5092692;28;20013;-91
2024/01/18 00:49:53;;;;;;;25.23;12.27;;;;;;;;;;5091891;28;20024;-91
2024/01/18 00:52:19;;;;;;;21.87;11.97;;;;;;;;;;5096488;28;20024;-92
2024/01/18 00:54:44;;;;;;;25.43;11.97;;;;;;;;;;5085165;28;20023;-93
2024/01/18 00:57:09;;;;;;;22.67;11.27;;;;;;;;;;5085528;28;20503;-91
2024/01/18 00:59:34;;;;;;;23.03;11.83;;;;;;;;;;5081944;28;20157;-91
2024/01/18 01:01:59;;;;;;;21.77;11.90;;;;;;;;;;5078278;28;20020;-91
2024/01/18 01:04:25;;;;;;;28.97;13.17;;;;;;;;;;5095725;28;20028;-91
2024/01/18 01:06:50;;;;;;;25.33;12.57;;;;;;;;;;5103096;28;20035;-91
2024/01/18 01:09:15;;;;;;;24.33;12.73;;;;;;;;;;5080557;28;20086;-91
2024/01/18 01:11:40;;;;;;;27.07;12.80;;;;;;;;;;5060071;28;20050;-91
2024/01/18 01:14:06;;;;;;;26.13;12.87;;;;;;;;;;5097126;28;20065;-91
2024/01/18 01:16:31;;;;;;;26.97;12.27;;;;;;;;;;5096862;28;20487;-91
2024/01/18 01:18:56;;;;;;;25.57;13.20;;;;;;;;;;5094316;28;20015;-91
2024/01/18 01:21:21;;;;;;;23.03;12.43;;;;;;;;;;5101988;28;20039;-92
2024/01/18 01:23:48;;;;;;;25.80;12.67;;;;;;;;;;5090266;28;20012;-91
2024/01/18 01:26:15;;;;;;;23.55;12.25;;;;;;;;;;5079378;28;20032;-91
2024/01/18 01:28:40;;;;;;;22.13;12.05;;;;;;;;;;5078289;28;20008;-90
2024/01/18 01:31:05;;;;;;;23.70;11.83;;;;;;;;;;5082053;28;20109;-92
2024/01/18 01:33:30;;;;;;;23.07;11.73;;;;;;;;;;5088940;28;20024;-90
2024/01/18 01:35:56;;;;;;;23.07;11.50;;;;;;;;;;5089995;28;20024;-91
2024/01/18 01:38:21;;;;;;;23.83;12.52;;;;;;;;;;5090282;28;20017;-90
2024/01/18 01:40:46;;;;;;;21.50;12.17;;;;;;;;;;5082954;28;20020;-91
2024/01/18 01:43:13;;;;;;;24.10;12.20;;;;;;;;;;5096904;28;20039;-91
2024/01/18 01:45:39;;;;;;;23.40;12.45;;;;;;;;;;5081330;28;20036;-91
2024/01/18 01:48:06;;;;;;;28.30;13.20;;;;;;;;;;5083970;28;20506;-92
2024/01/18 01:50:32;;;;;;;25.10;12.50;;;;;;;;;;5075535;28;20052;-91
2024/01/18 01:52:57;;;;;;;22.47;12.37;;;;;;;;;;5105337;28;20296;-92
2024/01/18 01:55:23;;;;;;;25.30;12.63;;;;;;;;;;5094204;28;20466;-91
2024/01/18 01:57:48;;;;;;;23.77;12.23;;;;;;;;;;5075080;28;20024;-91
2024/01/18 02:00:14;;;;;;;27.55;13.00;;;;;;;;;;5057095;28;20082;-92
2024/01/18 02:02:40;;;;;;;24.10;11.43;;;;;;;;;;5077351;28;20051;-90
2024/01/18 02:05:05;;;;;;;22.58;12.10;;;;;;;;;;5104702;28;20023;-92
2024/01/18 02:07:31;;;;;;;23.63;12.07;;;;;;;;;;5079041;28;20020;-91
2024/01/18 02:09:56;;;;;;;23.67;13.05;;;;;;;;;;5079433;28;20020;-91
2024/01/18 02:12:23;;;;;;;23.70;12.67;;;;;;;;;;5076213;28;20035;-91
2024/01/18 02:14:48;;;;;;;27.02;12.50;;;;;;;;;;5071716;28;20020;-91
2024/01/18 02:17:14;;;;;;;21.97;12.17;;;;;;;;;;5103723;28;20027;-91
2024/01/18 02:19:39;;;;;;;26.27;13.27;;;;;;;;;;5086282;28;20517;-91
2024/01/18 02:22:05;;;;;;;24.97;13.07;;;;;;;;;;5080012;28;20035;-91
2024/01/18 02:24:40;;;;;;;27.75;13.13;;;;;;;;;;5077993;28;20044;-91
2024/01/18 02:27:05;;;;;;;26.67;13.30;;;;;;;;;;5080608;28;20020;-90
2024/01/18 02:29:30;;;;;;;22.07;12.30;;;;;;;;;;5071225;28;20108;-90
2024/01/18 02:31:56;;;;;;;25.37;12.50;;;;;;;;;;5094056;28;20024;-90
2024/01/18 02:34:22;;;;;;;24.98;12.77;;;;;;;;;;5093970;28;20150;-91
2024/01/18 02:36:47;;;;;;;23.83;13.33;;;;;;;;;;5088789;28;20144;-90
2024/01/18 02:39:12;;;;;;;26.77;12.90;;;;;;;;;;5084974;28;20024;-91
2024/01/18 02:41:37;;;;;;;22.60;13.37;;;;;;;;;;5079705;28;20021;-90
2024/01/18 02:44:03;;;;;;;27.25;12.13;;;;;;;;;;5062545;28;20499;-90
2024/01/18 02:46:32;;;;;;;28.23;13.10;;;;;;;;;;5090622;28;20111;-90
2024/01/18 02:48:57;;;;;;;20.90;11.95;;;;;;;;;;5084285;28;20028;-90
2024/01/18 02:51:22;;;;;;;22.90;12.40;;;;;;;;;;5066153;28;20402;-91
2024/01/18 02:53:48;;;;;;;25.23;12.67;;;;;;;;;;5072473;28;20089;-90
2024/01/18 02:56:13;;;;;;;25.40;11.87;;;;;;;;;;5077382;28;20024;-90
2024/01/18 02:58:39;;;;;;;22.45;12.85;;;;;;;;;;5077067;28;20023;-90
2024/01/18 03:01:04;;;;;;;26.67;13.47;;;;;;;;;;5073715;28;20104;-90
2024/01/18 03:03:29;;;;;;;27.00;12.90;;;;;;;;;;5068475;28;20191;-90
2024/01/18 03:05:54;;;;;;;25.17;12.33;;;;;;;;;;5092112;28;20495;-90
2024/01/18 03:08:20;;;;;;;21.67;11.83;;;;;;;;;;5077012;28;20029;-90
2024/01/18 03:10:45;;;;;;;22.90;12.30;;;;;;;;;;5081926;28;20028;-90
2024/01/18 03:13:10;;;;;;;23.90;12.50;;;;;;;;;;5093942;28;20050;-90
2024/01/18 03:15:36;;;;;;;22.20;12.60;;;;;;;;;;5091425;28;20103;-91
2024/01/18 03:18:01;;;;;;;22.60;12.30;;;;;;;;;;5085210;28;20024;-90
2024/01/18 03:20:26;;;;;;;21.50;12.25;;;;;;;;;;5087114;28;20020;-90
2024/01/18 03:22:51;;;;;;;24.00;12.40;;;;;;;;;;5074908;28;20081;-91
2024/01/18 03:25:17;;;;;;;24.57;12.93;;;;;;;;;;5071173;28;20020;-90
2024/01/18 03:27:43;;;;;;;22.30;11.93;;;;;;;;;;5071935;28;20407;-90
2024/01/18 03:30:08;;;;;;;26.58;12.90;;;;;;;;;;5078872;28;20380;-91
2024/01/18 03:32:33;;;;;;;21.90;12.20;;;;;;;;;;5068006;28;20032;-91
2024/01/18 03:34:59;;;;;;;22.17;11.90;;;;;;;;;;5083836;28;20027;-91
2024/01/18 03:37:24;;;;;;;19.37;11.57;;;;;;;;;;5109708;28;20028;-91
2024/01/18 03:39:49;;;;;;;21.47;12.10;;;;;;;;;;5094555;28;20052;-91
2024/01/18 03:42:15;;;;;;;20.23;11.52;;;;;;;;;;5069745;28;20009;-90
2024/01/18 03:44:40;;;;;;;20.63;11.40;;;;;;;;;;5089835;28;20055;-91
2024/01/18 03:47:05;;;;;;;20.27;11.97;;;;;;;;;;5056627;28;20449;-91
2024/01/18 03:49:31;;;;;;;26.77;11.87;;;;;;;;;;5078395;28;20036;-91
2024/01/18 03:51:56;;;;;;;23.77;11.57;;;;;;;;;;5089525;28;20028;-91
2024/01/18 03:54:22;;;;;;;22.77;11.93;;;;;;;;;;5106717;28;20030;-90
2024/01/18 03:56:47;;;;;;;23.30;12.85;;;;;;;;;;5096486;28;20012;-90
2024/01/18 03:59:16;;;;;;;24.50;13.13;;;;;;;;;;5088311;28;20012;-91
2024/01/18 04:01:41;;;;;;;23.77;12.85;;;;;;;;;;5074929;28;20016;-92
2024/01/18 04:04:07;;;;;;;23.60;12.53;;;;;;;;;;5087723;28;20028;-91
2024/01/18 04:06:32;;;;;;;21.13;12.02;;;;;;;;;;5092655;28;20020;-92
2024/01/18 04:08:57;;;;;;;24.33;12.87;;;;;;;;;;5073157;28;20085;-92
2024/01/18 04:11:22;;;;;;;22.77;12.13;;;;;;;;;;5085196;28;20458;-93
2024/01/18 04:13:48;;;;;;;22.83;12.13;;;;;;;;;;5074550;28;20012;-92
2024/01/18 04:16:13;;;;;;;24.37;11.53;;;;;;;;;;5090639;28;20020;-93
2024/01/18 04:18:38;;;;;;;22.67;11.93;;;;;;;;;;5092773;28;20005;-92
2024/01/18 04:21:04;;;;;;;24.70;12.00;;;;;;;;;;5098090;28;20026;-92
2024/01/18 04:23:29;;;;;;;20.77;11.43;;;;;;;;;;5114060;28;20049;-91
2024/01/18 04:25:54;;;;;;;21.13;11.20;;;;;;;;;;5110591;28;20017;-92
2024/01/18 04:28:21;;;;;;;22.93;11.13;;;;;;;;;;5115983;28;20008;-92
2024/01/18 04:30:46;;;;;;;21.38;11.15;;;;;;;;;;5081123;28;20047;-93
2024/01/18 04:33:12;;;;;;;19.93;10.83;;;;;;;;;;5088675;28;20020;-92
2024/01/18 04:35:37;;;;;;;30.03;11.63;;;;;;;;;;5078069;28;20498;-92
2024/01/18 04:38:02;;;;;;;19.33;11.03;;;;;;;;;;5069489;28;20671;-91
2024/01/18 04:40:27;;;;;;;23.83;11.00;;;;;;;;;;5087225;28;20020;-92
2024/01/18 04:42:53;;;;;;;21.90;11.10;;;;;;;;;;5112906;28;20031;-92
2024/01/18 04:45:19;;;;;;;25.70;10.93;;;;;;;;;;5085473;28;20530;-91
2024/01/18 04:47:44;;;;;;;19.90;11.00;;;;;;;;;;5057554;28;20259;-92
2024/01/18 04:50:10;;;;;;;20.90;10.90;;;;;;;;;;5080143;28;20505;-93
2024/01/18 04:52:35;;;;;;;26.33;11.23;;;;;;;;;;5095304;28;20032;-92
2024/01/18 04:55:04;;;;;;;22.67;11.23;;;;;;;;;;5095296;28;20065;-92
2024/01/18 04:57:30;;;;;;;21.47;10.90;;;;;;;;;;5077310;28;20330;-92
2024/01/18 04:59:55;;;;;;;23.10;10.93;;;;;;;;;;5090015;28;20092;-90
2024/01/18 05:02:20;;;;;;;22.20;11.10;;;;;;;;;;5081599;28;20024;-92
2024/01/18 05:04:46;;;;;;;22.87;11.13;;;;;;;;;;5082536;28;20066;-92
2024/01/18 05:07:11;;;;;;;21.98;10.77;;;;;;;;;;5084977;28;20020;-92
2024/01/18 05:09:37;;;;;;;23.30;10.97;;;;;;;;;;5076242;28;20032;-92
2024/01/18 05:12:02;;;;;;;23.33;11.23;;;;;;;;;;5063655;28;20040;-92
2024/01/18 05:14:28;;;;;;;18.30;10.17;;;;;;;;;;5072177;28;20051;-91
2024/01/18 05:16:54;;;;;;;17.13;10.00;;;;;;;;;;5074509;28;20435;-92
2024/01/18 05:19:21;;;;;;;20.95;10.30;;;;;;;;;;5085944;28;20027;-92
2024/01/18 05:21:46;;;;;;;19.85;10.15;;;;;;;;;;5092333;28;20023;-92
2024/01/18 05:24:12;;;;;;;20.80;9.80;;;;;;;;;;5081722;28;20013;-92
2024/01/18 05:26:37;;;;;;;17.88;10.07;;;;;;;;;;5060870;28;20024;-90
2024/01/18 05:29:03;;;;;;;21.03;10.27;;;;;;;;;;5080508;28;20384;-89
2024/01/18 05:31:28;;;;;;;22.40;10.17;;;;;;;;;;5092709;28;20072;-91
2024/01/18 05:33:56;;;;;;;23.67;10.77;;;;;;;;;;5080668;28;20024;-90
2024/01/18 05:36:21;;;;;;;20.77;9.60;;;;;;;;;;5093171;28;20220;-90
2024/01/18 05:38:46;;;;;;;19.20;9.50;;;;;;;;;;5092826;28;20019;-91
2024/01/18 05:41:11;;;;;;;19.70;9.80;;;;;;;;;;5090803;28;20352;-91
2024/01/18 05:43:36;;;;;;;23.90;11.50;;;;;;;;;;5096975;28;20012;-91
2024/01/18 05:46:02;;;;;;;19.93;9.97;;;;;;;;;;5098977;28;20073;-93
2024/01/18 05:48:28;;;;;;;24.85;9.95;;;;;;;;;;5058386;28;20023;-92
2024/01/18 05:50:53;;;;;;;19.73;9.43;;;;;;;;;;5058402;28;20523;-90
2024/01/18 05:53:18;;;;;;;23.83;9.60;;;;;;;;;;5088912;28;20027;-91
2024/01/18 05:55:43;;;;;;;20.80;10.37;;;;;;;;;;5090992;28;20077;-90
2024/01/18 05:58:08;;;;;;;22.17;10.50;;;;;;;;;;5090220;28;20024;-91
2024/01/18 06:00:34;;;;;;;17.97;9.57;;;;;;;;;;5091322;28;20020;-91
2024/01/18 06:02:59;;;;;;;22.63;10.97;;;;;;;;;;5092295;28;20111;-90
2024/01/18 06:05:25;;;;;;;23.30;10.10;;;;;;;;;;5091305;28;20028;-93
2024/01/18 06:07:50;;;;;;;24.20;10.82;;;;;;;;;;5080616;28;20032;-95
2024/01/18 06:10:16;;;;;;;20.60;10.27;;;;;;;;;;5080618;28;20019;-95
2024/01/18 06:12:42;;;;;;;22.53;10.20;;;;;;;;;;5095981;28;20499;-94
2024/01/18 06:15:07;;;;;;;19.90;10.17;;;;;;;;;;5074382;28;20088;-91
2024/01/18 06:17:32;;;;;;;20.80;10.27;;;;;;;;;;5078180;28;20020;-91
2024/01/18 06:19:57;;;;;;;24.50;10.80;;;;;;;;;;5072437;28;20036;-90
2024/01/18 06:22:22;;;;;;;31.93;15.80;;;;;;;;;;5071243;28;20040;-88
2024/01/18 06:24:48;;;;;;;27.57;12.93;;;;;;;;;;5075161;28;20020;-88
2024/01/18 06:27:13;;;;;;;22.43;11.67;;;;;;;;;;5088665;28;20482;-91
2024/01/18 06:29:38;;;;;;;23.07;12.53;;;;;;;;;;5077041;28;20120;-91
2024/01/18 06:32:03;;;;;;;22.80;12.03;;;;;;;;;;5069994;28;20030;-89
2024/01/18 06:34:29;;;;;;;28.33;14.27;;;;;;;;;;5073092;28;20373;-90
2024/01/18 06:36:54;;;;;;;25.97;11.90;;;;;;;;;;5097824;28;20024;-90
2024/01/18 06:39:19;;;;;;;21.73;10.83;;;;;;;;;;5090086;28;20019;-89
2024/01/18 06:41:44;;;;;;;21.30;10.23;;;;;;;;;;5090540;28;20034;-89
2024/01/18 06:44:10;;;;;;;18.63;10.80;;;;;;;;;;5072643;28;20447;-89
2024/01/18 06:46:35;;;;;;;17.90;9.60;;;;;;;;;;5089056;28;20466;-88
2024/01/18 06:49:00;;;;;;;21.03;10.47;;;;;;;;;;5090269;28;20019;-89
2024/01/18 06:51:26;;;;;;;18.80;10.43;;;;;;;;;;5061575;28;20119;-89
2024/01/18 06:53:51;;;;;;;19.53;10.27;;;;;;;;;;5087385;28;20403;-88
2024/01/18 06:56:16;;;;;;;23.53;10.77;;;;;;;;;;5078870;28;20025;-88
2024/01/18 06:58:42;;;;;;;25.30;10.17;;;;;;;;;;5076034;28;20016;-88
2024/01/18 07:01:07;;;;;;;18.48;10.07;;;;;;;;;;5089961;28;20020;-89
2024/01/18 07:03:35;;;;;;;25.57;11.20;;;;;;;;;;5082993;28;20027;-89
2024/01/18 07:06:00;;;;;;;20.08;9.90;;;;;;;;;;5074264;28;20016;-89
2024/01/18 07:08:25;;;;;;;18.27;8.97;;;;;;;;;;5069468;28;20107;-88
2024/01/18 07:10:51;;;;;;;20.73;10.27;;;;;;;;;;5079978;28;20024;-88
2024/01/18 07:13:16;;;;;;;18.23;9.60;;;;;;;;;;5074122;28;20081;-88
2024/01/18 07:15:41;;;;;;;18.30;9.40;;;;;;;;;;5070063;28;20483;-87
2024/01/18 07:18:06;;;;;;;17.67;10.07;;;;;;;;;;5080934;28;20517;-89
2024/01/18 07:20:31;;;;;;;25.37;10.27;;;;;;;;;;5083388;28;20460;-88
2024/01/18 07:22:56;;;;;;;22.27;9.67;;;;;;;;;;5079084;28;20051;-90
2024/01/18 07:25:22;;;;;;;17.93;9.43;;;;;;;;;;5087110;28;20132;-91
2024/01/18 07:27:47;;;;;;;23.33;9.63;;;;;;;;;;5062436;28;20622;-89
2024/01/18 07:30:14;;;;;;;27.50;10.37;;;;;;;;;;5074127;28;20027;-90
2024/01/18 07:32:39;;;;;;;20.27;10.02;;;;;;;;;;5077932;28;20043;-89
2024/01/18 07:35:04;;;;;;;17.63;9.37;;;;;;;;;;5094074;28;20016;-90
2024/01/18 07:37:30;;;;;;;16.90;9.57;;;;;;;;;;5083481;28;20507;-90
2024/01/18 07:39:55;;;;;;;19.23;8.43;;;;;;;;;;5070230;28;20013;-92
2024/01/18 07:42:20;;;;;;;17.40;8.77;;;;;;;;;;5074472;28;20050;-91
2024/01/18 07:44:47;;;;;;;20.63;9.07;;;;;;;;;;5082187;28;20371;-89
2024/01/18 07:47:12;;;;;;;14.10;7.65;;;;;;;;;;5060628;28;20032;-88
2024/01/18 07:49:42;;;;;;;17.27;8.30;;;;;;;;;;5083109;28;20360;-92
2024/01/18 07:52:09;;;;;;;15.88;7.90;;;;;;;;;;5080025;28;20150;-92
2024/01/18 07:54:34;;;;;;;16.77;8.02;;;;;;;;;;5058559;28;20021;-92
2024/01/18 07:57:00;;;;;;;20.97;8.43;;;;;;;;;;5094269;28;20496;-92
2024/01/18 07:59:25;;;;;;;24.90;9.40;;;;;;;;;;5076435;28;20016;-92
2024/01/18 08:01:50;;;;;;;16.30;8.07;;;;;;;;;;5059837;28;20036;-90
2024/01/18 08:04:15;;;;;;;21.53;9.00;;;;;;;;;;5076048;28;20424;-92
2024/01/18 08:06:42;;;;;;;15.97;8.43;;;;;;;;;;5089451;28;20023;-92
2024/01/18 08:09:11;;;;;;;21.52;8.50;;;;;;;;;;5072501;28;20093;-92
2024/01/18 08:11:36;;;;;;;18.95;8.68;;;;;;;;;;5068917;28;20028;-92
2024/01/18 08:14:02;;;;;;;18.07;7.70;;;;;;;;;;5094843;28;20050;-93
2024/01/18 08:16:27;;;;;;;21.50;8.10;;;;;;;;;;5064967;28;20032;-93
2024/01/18 08:18:53;;;;;;;18.90;7.90;;;;;;;;;;5091574;28;20075;-92
2024/01/18 08:21:18;;;;;;;17.67;8.35;;;;;;;;;;5086351;28;20039;-93
2024/01/18 08:23:44;;;;;;;14.93;8.23;;;;;;;;;;5066050;28;20021;-93
2024/01/18 08:26:10;;;;;;;17.40;8.43;;;;;;;;;;5091845;28;20551;-93
2024/01/18 08:28:36;;;;;;;15.25;7.80;;;;;;;;;;5092568;28;20023;-92
2024/01/18 08:31:01;;;;;;;16.93;8.40;;;;;;;;;;5085575;28;20173;-91
2024/01/18 08:33:26;;;;;;;16.87;8.07;;;;;;;;;;5101754;28;20031;-92
2024/01/18 08:35:51;;;;;;;18.40;8.83;;;;;;;;;;5098814;28;20084;-92
2024/01/18 08:38:16;;;;;;;19.03;9.47;;;;;;;;;;5075650;28;20080;-92
2024/01/18 08:40:42;;;;;;;20.83;8.97;;;;;;;;;;5092489;28;20016;-93
2024/01/18 08:43:07;;;;;;;20.47;9.17;;;;;;;;;;5120117;28;20054;-92
2024/01/18 08:45:33;;;;;;;19.00;9.13;;;;;;;;;;5103551;28;20345;-91
2024/01/18 08:47:58;;;;;;;17.33;9.80;;;;;;;;;;5103487;28;20015;-91
2024/01/18 08:50:24;;;;;;;18.30;8.87;;;;;;;;;;5096913;28;20025;-91
2024/01/18 08:52:52;;;;;;;19.83;9.40;;;;;;;;;;5067128;28;20036;-92
2024/01/18 08:55:18;;;;;;;22.42;9.82;;;;;;;;;;5073840;28;20013;-92
2024/01/18 08:57:43;;;;;;;22.13;8.83;;;;;;;;;;5061775;28;20031;-91
2024/01/18 09:00:13;;;;;;;21.80;9.33;;;;;;;;;;5075341;28;20071;-92
2024/01/18 09:02:38;;;;;;;18.00;9.55;;;;;;;;;;5075690;28;20409;-92
2024/01/18 09:05:04;;;;;;;23.03;9.23;;;;;;;;;;5096320;28;20034;-91
2024/01/18 09:07:29;;;;;;;21.23;8.63;;;;;;;;;;5074151;28;20093;-92
2024/01/18 09:09:55;;;;;;;20.70;9.77;;;;;;;;;;5084619;28;20405;-92
2024/01/18 09:12:20;;;;;;;24.97;8.83;;;;;;;;;;5077420;28;20044;-90
2024/01/18 09:14:45;;;;;;;15.97;8.60;;;;;;;;;;5106946;28;20039;-92
2024/01/18 09:17:11;;;;;;;22.13;9.23;;;;;;;;;;5076895;28;20439;-91
2024/01/18 09:19:36;;;;;;;19.33;9.15;;;;;;;;;;5083685;28;20067;-91
2024/01/18 09:22:02;;;;;;;18.63;10.73;;;;;;;;;;5094629;28;20016;-91
2024/01/18 09:24:27;;;;;;;21.67;9.53;;;;;;;;;;5111702;27;20088;-92
2024/01/18 09:26:52;;;;;;;18.57;9.33;;;;;;;;;;5102512;28;20023;-93
2024/01/18 09:29:17;;;;;;;23.03;9.00;;;;;;;;;;5100558;28;20020;-89
2024/01/18 09:31:43;;;;;;;19.07;9.83;;;;;;;;;;5095975;28;20040;-91
2024/01/18 09:34:08;;;;;;;22.35;10.02;;;;;;;;;;5081803;28;20410;-90
2024/01/18 09:36:33;;;;;;;19.57;9.97;;;;;;;;;;5102985;28;20031;-90
2024/01/18 09:38:59;;;;;;;20.43;10.27;;;;;;;;;;5099630;28;20033;-92
2024/01/18 09:41:29;;;;;;;22.87;9.73;;;;;;;;;;5105592;28;20020;-92
2024/01/18 09:43:58;;;;;;;17.25;10.25;;;;;;;;;;5097007;28;20042;-91
2024/01/18 09:46:23;;;;;;;19.63;11.10;;;;;;;;;;5079798;28;20081;-91
2024/01/18 09:48:48;;;;;;;18.90;9.77;;;;;;;;;;5083413;28;20099;-90
2024/01/18 09:51:14;;;;;;;19.77;10.53;;;;;;;;;;5055727;28;20486;-94
2024/01/18 09:53:44;;;;;;;16.90;10.30;;;;;;;;;;5070686;28;20027;-90
2024/01/18 09:56:21;;;;;;;21.98;10.50;;;;;;;;;;5083529;28;20475;-92
2024/01/18 09:58:46;;;;;;;21.27;9.93;;;;;;;;;;5078252;28;20021;-89
2024/01/18 10:01:18;;;;;;;19.65;9.43;;;;;;;;;;5093447;28;20032;-90
2024/01/18 10:03:44;;;;;;;18.67;9.27;;;;;;;;;;5086641;28;20028;-91
2024/01/18 10:06:10;;;;;;;16.95;8.90;;;;;;;;;;5081463;28;20024;-92
2024/01/18 10:08:35;;;;;;;17.43;8.13;;;;;;;;;;5086991;28;20025;-92
2024/01/18 10:11:00;;;;;;;16.40;8.33;;;;;;;;;;5088760;28;20035;-88
2024/01/18 10:13:26;;;;;;;14.80;7.63;;;;;;;;;;5073066;28;20276;-87
2024/01/18 10:15:52;;;;;;;12.80;6.97;;;;;;;;;;5072295;28;20048;-87
2024/01/18 10:18:18;;;;;;;12.17;7.13;;;;;;;;;;5051959;28;20463;-87
2024/01/18 10:20:45;;;;;;;11.50;7.60;;;;;;;;;;5073382;28;20070;-86
2024/01/18 10:23:10;;;;;;;14.15;7.45;;;;;;;;;;5071260;28;20036;-86
2024/01/18 10:25:35;;;;;;;14.40;8.17;;;;;;;;;;5078600;28;20511;-86
2024/01/18 10:28:00;;;;;;;16.83;7.87;;;;;;;;;;5081404;28;20027;-86
2024/01/18 10:30:26;;;;;;;13.47;7.60;;;;;;;;;;5075904;28;20024;-87
2024/01/18 10:32:51;;;;;;;14.40;7.80;;;;;;;;;;5083007;28;20036;-87
2024/01/18 10:35:24;;;;;;;14.95;6.88;;;;;;;;;;5067049;28;20024;-88
2024/01/18 10:37:59;;;;;;;17.70;6.95;;;;;;;;;;5073084;28;20056;-88
2024/01/18 10:40:24;;;;;;;12.05;6.15;;;;;;;;;;5069147;28;20410;-88
2024/01/18 10:42:49;;;;;;;11.30;6.07;;;;;;;;;;5084591;28;20056;-88
2024/01/18 10:45:15;;;;;;;11.67;6.80;;;;;;;;;;5071585;28;20036;-88
2024/01/18 10:47:41;;;;;;;17.43;6.40;;;;;;;;;;5069699;28;20138;-87
2024/01/18 10:50:08;;;;;;;10.98;5.63;;;;;;;;;;5075060;28;20374;-89
2024/01/18 10:52:35;;;;;;;10.13;6.00;;;;;;;;;;5075701;28;20401;-87
2024/01/18 10:55:02;;;;;;;11.40;5.32;;;;;;;;;;5079547;28;20028;-86
2024/01/18 10:57:27;;;;;;;12.80;5.70;;;;;;;;;;5052825;28;20073;-87
2024/01/18 10:59:55;;;;;;;14.03;5.53;;;;;;;;;;5069839;28;20472;-87
2024/01/18 11:02:20;;;;;;;7.70;4.82;;;;;;;;;;5074226;28;20035;-86
2024/01/18 11:04:46;;;;;;;9.43;5.30;;;;;;;;;;5081298;28;20016;-88
2024/01/18 11:07:11;;;;;;;11.50;5.73;;;;;;;;;;5070185;28;20432;-87
2024/01/18 11:09:37;;;;;;;12.00;5.97;;;;;;;;;;5084359;28;20262;-87
2024/01/18 11:12:03;;;;;;;13.23;5.97;;;;;;;;;;5087555;28;20028;-87
2024/01/18 11:14:28;;;;;;;11.60;5.70;;;;;;;;;;5091956;28;20024;-86
2024/01/18 11:16:54;;;;;;;9.47;5.23;;;;;;;;;;5073092;28;20074;-87
2024/01/18 11:19:37;;;;;;;12.25;5.80;;;;;;;;;;5075687;28;20012;-86
2024/01/18 11:22:03;;;;;;;12.48;5.00;;;;;;;;;;5085916;28;20024;-85
2024/01/18 11:24:28;;;;;;;10.13;4.77;;;;;;;;;;5072837;28;20493;-86
2024/01/18 11:26:56;;;;;;;9.43;4.80;;;;;;;;;;5081072;28;20509;-85
2024/01/18 11:29:24;;;;;;;11.82;5.32;;;;;;;;;;5075197;28;20035;-86
2024/01/18 11:31:50;;;;;;;8.73;4.95;;;;;;;;;;5089191;28;20071;-86
2024/01/18 11:34:28;;;;;;;7.00;4.03;;;;;;;;;;5093712;28;20012;-86
2024/01/18 11:37:07;;;;;;;10.13;3.93;;;;;;;;;;5086793;28;20286;-86
2024/01/18 11:39:48;;;;;;;6.43;3.55;;;;;;;;;;5079353;28;20016;-87
2024/01/18 11:42:26;;;;;;;10.35;4.03;;;;;;;;;;5091750;28;20028;-86
2024/01/18 11:45:04;;;;;;;4.80;3.20;;;;;;;;;;5075545;28;20023;-86
2024/01/18 11:47:33;;;;;;;6.90;3.45;;;;;;;;;;5082047;28;20051;-86
2024/01/18 11:50:00;;;;;;;5.87;3.20;;;;;;;;;;5073025;28;20460;-86
2024/01/18 11:52:27;;;;;;;6.63;3.20;;;;;;;;;;5072587;28;20298;-86
2024/01/18 11:54:55;;;;;;;5.70;2.15;;;;;;;;;;5086296;28;20020;-86
2024/01/18 11:57:21;;;;;;;4.78;2.05;;;;;;;;;;5092498;28;20404;-86
2024/01/18 11:59:46;;;;;;;3.80;1.53;;;;;;;;;;5092666;28;20149;-86
2024/01/18 12:02:11;;;;;;;4.00;1.90;;;;;;;;;;5092052;28;20039;-86
2024/01/18 12:04:36;;;;;;;7.30;2.28;;;;;;;;;;5092575;28;20069;-86
2024/01/18 12:07:02;;;;;;;5.27;1.57;;;;;;;;;;5081854;28;20455;-86
2024/01/18 12:09:30;;;;;;;3.30;1.50;;;;;;;;;;5083817;28;20024;-86
2024/01/18 12:11:56;;;;;;;6.95;1.75;;;;;;;;;;5056416;28;20131;-86
2024/01/18 12:14:22;;;;;;;3.78;1.60;;;;;;;;;;5087307;28;20579;-85
2024/01/18 12:16:47;;;;;;;4.43;1.50;;;;;;;;;;5082175;28;20052;-85
2024/01/18 12:19:12;;;;;;;5.33;1.50;;;;;;;;;;5072667;28;20066;-85
2024/01/18 12:21:38;;;;;;;5.50;1.13;;;;;;;;;;5075699;28;20089;-85
2024/01/18 12:24:03;;;;;;;4.10;1.40;;;;;;;;;;5072157;28;20012;-85
2024/01/18 12:26:30;;;;;;;5.05;1.30;;;;;;;;;;5084028;28;20484;-85
2024/01/18 12:28:55;;;;;;;2.20;1.47;;;;;;;;;;5077072;28;20032;-85
2024/01/18 12:31:21;;;;;;;3.03;0.90;;;;;;;;;;5075997;28;20298;-84
2024/01/18 12:33:46;;;;;;;2.33;1.20;;;;;;;;;;5072626;28;20028;-85
2024/01/18 12:36:11;;;;;;;5.63;1.30;;;;;;;;;;5080158;28;20710;-85
2024/01/18 12:38:37;;;;;;;3.93;1.10;;;;;;;;;;5074335;28;20031;-86
2024/01/18 12:41:02;;;;;;;3.57;1.00;;;;;;;;;;5089147;28;20035;-84
2024/01/18 12:43:27;;;;;;;12.43;1.77;;;;;;;;;;5080010;28;20074;-84
2024/01/18 12:45:52;;;;;;;5.10;1.27;;;;;;;;;;5090671;28;20036;-84
2024/01/18 12:48:19;;;;;;;3.83;1.00;;;;;;;;;;5072574;28;20016;-84
2024/01/18 12:50:44;;;;;;;5.15;1.27;;;;;;;;;;5068170;28;20036;-84
2024/01/18 12:53:09;;;;;;;5.63;1.50;;;;;;;;;;5071524;28;20476;-84
2024/01/18 12:55:35;;;;;;;4.83;1.20;;;;;;;;;;5072611;28;20021;-84
2024/01/18 12:58:01;;;;;;;4.43;1.10;;;;;;;;;;5057306;28;20535;-84
2024/01/18 13:00:27;;;;;;;5.40;0.93;;;;;;;;;;5075298;28;20796;-84
2024/01/18 13:02:52;;;;;;;4.18;0.80;;;;;;;;;;5080694;28;20024;-84
2024/01/18 13:05:18;;;;;;;3.13;0.97;;;;;;;;;;5076433;28;20020;-85
2024/01/18 13:07:43;;;;;;;5.03;0.90;;;;;;;;;;5053989;28;20023;-84
2024/01/18 13:10:11;;;;;;;4.70;0.90;;;;;;;;;;5070647;28;20107;-84
2024/01/18 13:12:37;;;;;;;5.15;0.98;;;;;;;;;;5071584;28;20063;-84
2024/01/18 13:15:03;;;;;;;4.60;0.80;;;;;;;;;;5080086;28;20056;-83
2024/01/18 13:17:29;;;;;;;8.60;1.10;;;;;;;;;;5096805;28;20637;-83
2024/01/18 13:19:54;;;;;;;0.80;0.57;;;;;;;;;;5086131;28;20032;-85
2024/01/18 13:22:19;;;;;;;2.43;0.83;;;;;;;;;;5071247;28;20016;-83
2024/01/18 13:24:44;;;;;;;5.67;0.80;;;;;;;;;;5079799;28;20004;-84
2024/01/18 13:27:10;;;;;;;1.33;0.70;;;;;;;;;;5091405;28;20027;-84
2024/01/18 13:29:35;;;;;;;1.13;0.80;;;;;;;;;;5063962;28;20072;-84
2024/01/18 13:32:00;;;;;;;2.67;1.00;;;;;;;;;;5057357;28;20481;-83
2024/01/18 13:34:25;;;;;;;4.33;0.63;;;;;;;;;;5077099;28;20020;-85
2024/01/18 13:36:51;;;;;;;6.40;0.60;;;;;;;;;;5071485;28;20020;-84
2024/01/18 13:39:20;;;;;;;3.67;0.57;;;;;;;;;;5070719;28;20078;-83
2024/01/18 13:41:45;;;;;;;5.40;0.70;;;;;;;;;;5086617;28;20540;-85
2024/01/18 13:44:10;;;;;;;2.30;0.50;;;;;;;;;;5089097;28;20024;-84
2024/01/18 13:46:38;;;;;;;4.33;0.53;;;;;;;;;;5091532;28;20103;-84
2024/01/18 13:49:04;;;;;;;3.40;1.10;;;;;;;;;;5089562;28;20081;-83
2024/01/18 13:51:30;;;;;;;2.77;0.77;;;;;;;;;;5084745;28;20777;-83
2024/01/18 13:53:55;;;;;;;7.22;1.00;;;;;;;;;;5090583;28;20028;-85
2024/01/18 13:56:22;;;;;;;6.77;0.93;;;;;;;;;;5082752;28;20021;-82
2024/01/18 13:58:47;;;;;;;2.17;0.57;;;;;;;;;;5075159;28;20024;-82
2024/01/18 14:01:12;;;;;;;4.83;0.50;;;;;;;;;;5086982;28;20332;-82
2024/01/18 14:03:39;;;;;;;2.83;0.60;;;;;;;;;;5082344;28;20042;-82
2024/01/18 14:06:05;;;;;;;3.83;1.00;;;;;;;;;;5090444;28;20015;-82
2024/01/18 14:08:30;;;;;;;1.63;0.47;;;;;;;;;;5085328;28;20046;-82
2024/01/18 14:10:55;;;;;;;3.60;0.53;;;;;;;;;;5087742;28;20475;-82
2024/01/18 14:13:21;;;;;;;1.20;0.50;;;;;;;;;;5078646;28;20035;-82
2024/01/18 14:15:50;;;;;;;4.90;0.50;;;;;;;;;;5070799;28;20104;-82
2024/01/18 14:18:15;;;;;;;3.05;0.40;;;;;;;;;;5078085;28;20477;-82